MDT,Max TemperatureF,Mean TemperatureF,Min TemperatureF,Max Dew PointF,MeanDew PointF,Min DewpointF,Max Humidity, Mean Humidity, Min Humidity, Max Sea Level PressureIn, Mean Sea Level PressureIn, Min Sea Level PressureIn, Max VisibilityMiles, Mean VisibilityMiles, Min VisibilityMiles, Max Wind SpeedMPH, Mean Wind SpeedMPH, Max Gust SpeedMPH,PrecipitationIn, CloudCover, Events, WindDirDegrees
2013-3-1,44,29,13,29,21,12,85,65,45,30.49,30.40,30.35,10,10,10,12,5,13,0.00,3,,133
2013-3-2,48,34,19,31,26,17,92,75,57,30.41,30.24,29.93,10,10,10,13,4,41,0.00,0,,169
2013-3-3,50,40,29,34,29,18,92,73,54,29.91,29.75,29.53,10,10,10,37,7,47,0.00,3,,32
2013-3-4,32,23,14,16,12,8,80,63,45,30.43,30.19,29.87,10,10,10,29,16,43,0.00,3,,343
2013-3-5,37,24,11,19,15,8,88,66,44,30.43,30.28,30.12,10,10,10,12,4,13,0.00,0,,72
2013-3-6,55,37,18,29,23,16,92,62,32,30.11,29.90,29.72,10,10,10,18,5,21,0.00,1,,177
2013-3-7,48,38,27,30,24,17,92,62,31,30.02,29.96,29.83,10,10,10,9,3,12,0.00,0,,53
2013-3-8,49,39,29,33,27,24,85,66,46,29.98,29.89,29.78,10,10,10,10,4,14,0.00,3,,23
2013-3-9,43,37,31,27,22,16,75,54,33,30.24,30.03,29.84,10,10,10,37,16,44,0.00,4,,324
2013-3-10,50,37,23,29,21,16,82,54,26,30.31,30.17,30.01,10,10,10,9,3,10,0.00,0,,160
2013-3-11,41,35,28,36,29,21,92,71,50,30.29,30.07,29.99,10,8,1,21,7,30,0.01,7,Snow,288
2013-3-12,46,34,21,23,19,13,88,61,33,30.38,30.28,30.18,10,10,10,15,5,18,0.00,1,,110
2013-3-13,63,44,25,34,27,22,92,57,21,30.27,30.19,30.12,10,10,10,13,3,13,0.00,0,,188
2013-3-14,68,49,29,36,29,24,85,53,20,30.23,30.12,29.94,10,10,10,14,6,15,0.00,0,,152
2013-3-15,69,51,33,33,26,17,89,52,15,29.94,29.90,29.80,10,10,10,15,6,20,0.00,0,,278
2013-3-16,54,45,35,37,32,27,82,62,41,29.96,29.87,29.70,10,10,4,18,5,24,0.07,5,Rain-Thunderstorm,83
2013-3-17,47,35,23,31,25,14,85,61,37,29.93,29.62,29.45,10,9,0,38,10,46,0.01,5,Fog-Snow,338
2013-3-18,44,31,18,17,10,0,74,45,16,30.02,29.96,29.88,10,10,10,20,9,22,0.00,1,,256
2013-3-19,43,34,24,23,17,9,81,53,25,30.32,30.23,30.01,10,10,10,15,6,18,0.00,2,,179
2013-3-20,56,38,19,23,18,13,84,51,18,30.29,29.94,29.68,10,10,10,13,3,13,0.00,1,,237
2013-3-21,43,35,27,32,27,20,92,67,41,29.93,29.69,29.51,10,6,1,31,9,38,0.01,6,Snow,342
2013-3-22,40,31,22,23,13,1,84,53,21,30.11,29.94,29.85,10,10,10,22,11,26,0.00,5,,324
2013-3-23,35,27,19,13,8,1,73,49,25,30.30,30.24,30.14,10,10,10,16,6,26,0.00,4,,337
2013-3-24,34,25,16,14,6,2,80,53,25,30.35,30.30,30.27,10,10,10,29,10,36,0.00,5,,317
2013-3-25,43,28,13,13,7,2,76,47,18,30.39,30.27,30.12,10,10,10,15,5,28,0.00,0,,165
2013-3-26,52,35,17,18,13,6,80,49,18,30.12,30.04,29.96,10,10,10,12,3,13,0.00,0,,156
2013-3-27,60,39,18,26,20,15,84,53,21,30.12,30.03,29.96,10,10,10,12,4,18,0.00,1,,159
2013-3-28,63,45,26,28,22,12,85,50,14,30.14,30.05,29.99,10,10,10,13,5,14,0.00,0,,138
2013-3-29,64,50,35,38,27,18,82,51,19,30.11,30.05,30.01,10,10,10,29,6,32,0.00,3,,305
2013-3-30,58,48,37,40,34,23,89,57,25,30.21,30.16,30.12,10,10,4,22,8,26,0.10,6,Rain,258
2013-3-31,63,45,27,33,25,21,85,53,20,30.11,30.05,29.99,10,10,10,17,6,23,0.00,0,,334